createdAt,value
2023-05-09T00:00:11.141Z,12.60
2023-05-09T00:01:14.167Z,12.60
2023-05-09T00:02:17.254Z,12.70
2023-05-09T00:03:19.255Z,12.60
2023-05-09T00:04:22.312Z,12.60
2023-05-09T00:05:24.502Z,12.50
2023-05-09T00:06:28.066Z,12.50
2023-05-09T00:07:30.072Z,12.50
2023-05-09T00:08:33.035Z,12.60
2023-05-09T00:09:35.291Z,12.50
2023-05-09T00:10:38.450Z,12.50
2023-05-09T00:11:41.775Z,12.60
2023-05-09T00:12:44.846Z,12.60
2023-05-09T00:13:47.140Z,12.50
2023-05-09T00:14:51.604Z,12.60
2023-05-09T00:15:53.969Z,12.60
2023-05-09T00:16:57.302Z,12.60
2023-05-09T00:17:59.548Z,12.60
2023-05-09T00:19:03.334Z,12.60
2023-05-09T00:20:09.225Z,12.70
2023-05-09T00:21:12.377Z,12.70
2023-05-09T00:22:14.310Z,12.70
2023-05-09T00:23:17.906Z,12.80
2023-05-09T00:24:19.920Z,12.70
2023-05-09T00:25:22.842Z,12.70
2023-05-09T00:26:24.854Z,12.60
2023-05-09T00:27:30.593Z,12.70
2023-05-09T00:28:32.802Z,12.70
2023-05-09T00:29:35.746Z,12.70
2023-05-09T00:30:37.847Z,12.70
2023-05-09T00:31:40.786Z,12.70
2023-05-09T00:32:42.769Z,12.70
2023-05-09T00:33:45.692Z,12.70
2023-05-09T00:34:47.589Z,12.70
2023-05-09T00:35:50.634Z,12.60
2023-05-09T00:36:52.573Z,12.60
2023-05-09T00:37:55.687Z,12.60
2023-05-09T00:38:57.646Z,12.50
2023-05-09T00:40:00.679Z,12.50
2023-05-09T00:41:02.662Z,12.40
2023-05-09T00:42:05.823Z,12.40
2023-05-09T00:43:10.062Z,12.30
2023-05-09T00:44:12.061Z,12.30
2023-05-09T00:45:15.172Z,12.30
2023-05-09T00:46:17.389Z,12.30
2023-05-09T00:47:21.628Z,12.40
2023-05-09T00:48:23.650Z,12.40
2023-05-09T00:49:27.056Z,12.40
2023-05-09T00:50:29.023Z,12.40
2023-05-09T00:51:33.144Z,12.40
2023-05-09T00:52:35.875Z,12.40
2023-05-09T00:53:39.387Z,12.40
2023-05-09T00:54:41.451Z,12.40
2023-05-09T00:55:44.374Z,12.40
2023-05-09T00:56:46.590Z,12.40
2023-05-09T00:57:49.646Z,12.30
2023-05-09T00:58:53.255Z,12.30
2023-05-09T00:59:56.659Z,12.20
2023-05-09T01:00:59.104Z,12.20
2023-05-09T01:02:02.082Z,12.30
2023-05-09T01:03:05.062Z,12.20
2023-05-09T01:04:08.381Z,12.30
2023-05-09T01:05:11.352Z,12.30
2023-05-09T01:06:21.560Z,12.40
2023-05-09T01:07:30.429Z,12.40
2023-05-09T01:08:45.781Z,12.40
2023-05-09T01:09:56.483Z,12.40
2023-05-09T01:11:05.773Z,12.50
2023-05-09T01:12:15.061Z,12.50
2023-05-09T01:13:37.323Z,12.50
2023-05-09T01:14:52.123Z,12.50
2023-05-09T01:15:59.828Z,12.50
2023-05-09T01:17:09.109Z,12.50
2023-05-09T01:18:18.596Z,12.50
2023-05-09T01:19:36.610Z,12.40
2023-05-09T01:20:45.605Z,12.40
2023-05-09T01:21:50.362Z,12.40
2023-05-09T01:23:02.408Z,12.40
2023-05-09T01:24:22.672Z,12.40
2023-05-09T01:25:42.947Z,12.40
2023-05-09T01:26:47.938Z,12.30
2023-05-09T01:27:59.105Z,12.30
2023-05-09T01:29:26.778Z,12.30
2023-05-09T01:30:34.202Z,12.30
2023-05-09T01:31:38.502Z,12.20
2023-05-09T01:32:44.751Z,12.20
2023-05-09T01:33:51.960Z,12.30
2023-05-09T01:34:57.891Z,12.30
2023-05-09T01:36:04.652Z,12.20
2023-05-09T01:37:08.446Z,12.20
2023-05-09T01:38:13.440Z,12.30
2023-05-09T01:39:19.151Z,12.30
2023-05-09T01:40:23.103Z,12.40
2023-05-09T01:41:31.062Z,12.40
2023-05-09T01:42:41.029Z,12.40
2023-05-09T01:43:46.873Z,12.40
2023-05-09T01:44:49.814Z,12.30
2023-05-09T01:45:54.815Z,12.20
2023-05-09T01:46:59.990Z,12.30
2023-05-09T01:48:03.618Z,12.30
2023-05-09T01:49:08.253Z,12.40
2023-05-09T01:50:13.127Z,12.40
2023-05-09T01:51:16.529Z,12.40
2023-05-09T01:52:21.060Z,12.40
2023-05-09T01:53:24.688Z,12.40
2023-05-09T01:54:29.607Z,12.40
2023-05-09T01:55:34.297Z,12.30
2023-05-09T01:56:38.878Z,12.30
2023-05-09T01:57:42.127Z,12.40
2023-05-09T01:58:48.217Z,12.30
2023-05-09T01:59:50.894Z,12.30
2023-05-09T02:00:55.322Z,12.40
2023-05-09T02:01:57.877Z,12.20
2023-05-09T02:03:01.027Z,12.20
2023-05-09T02:04:05.651Z,12.30
2023-05-09T02:05:10.660Z,12.30
2023-05-09T02:06:13.828Z,12.30
2023-05-09T02:07:17.318Z,12.30
2023-05-09T02:08:21.197Z,12.30
2023-05-09T02:09:24.585Z,12.30
2023-05-09T02:10:28.331Z,12.30
2023-05-09T02:11:31.547Z,12.30
2023-05-09T02:12:33.716Z,12.30
2023-05-09T02:13:38.311Z,12.20
2023-05-09T02:14:40.439Z,12.20
2023-05-09T02:15:43.834Z,12.30
2023-05-09T02:16:47.288Z,12.30
2023-05-09T02:17:50.285Z,12.30
2023-05-09T02:18:52.252Z,12.30
2023-05-09T02:19:55.195Z,12.20
2023-05-09T02:20:57.212Z,12.20
2023-05-09T02:22:00.533Z,12.20
2023-05-09T02:23:02.671Z,12.20
2023-05-09T02:24:06.422Z,9.50
2023-05-09T02:25:10.593Z,12.20
2023-05-09T02:26:14.488Z,12.20
2023-05-09T02:27:17.205Z,12.20
2023-05-09T02:28:21.969Z,12.20
2023-05-09T02:29:28.752Z,12.20
2023-05-09T02:30:37.926Z,12.30
2023-05-09T02:31:41.061Z,12.30
2023-05-09T02:32:48.789Z,12.20
2023-05-09T02:33:52.725Z,12.20
2023-05-09T02:34:57.011Z,12.20
2023-05-09T02:35:59.281Z,12.20
2023-05-09T02:37:02.429Z,12.20
2023-05-09T02:38:04.504Z,12.20
2023-05-09T02:39:08.151Z,12.20
2023-05-09T02:40:11.785Z,12.20
2023-05-09T02:41:15.264Z,12.20
2023-05-09T02:42:20.899Z,12.10
2023-05-09T02:43:23.841Z,12.20
2023-05-09T02:44:25.810Z,12.20
2023-05-09T02:45:28.799Z,12.30
2023-05-09T02:46:31.139Z,12.30
2023-05-09T02:47:34.185Z,12.20
2023-05-09T02:48:37.655Z,12.20
2023-05-09T02:49:40.619Z,12.20
2023-05-09T02:50:43.452Z,12.20
2023-05-09T02:51:46.378Z,12.20
2023-05-09T02:52:48.392Z,12.20
2023-05-09T02:53:51.295Z,12.20
2023-05-09T02:54:53.459Z,12.20
2023-05-09T02:55:56.416Z,12.20
2023-05-09T02:56:59.160Z,12.20
2023-05-09T02:58:12.876Z,12.10
2023-05-09T02:59:17.742Z,12.10
2023-05-09T03:00:22.129Z,12.00
2023-05-09T03:01:24.156Z,12.00
2023-05-09T03:02:27.305Z,12.00
2023-05-09T03:03:30.859Z,12.00
2023-05-09T03:04:35.265Z,12.00
2023-05-09T03:05:37.232Z,12.00
2023-05-09T03:06:40.361Z,12.00
2023-05-09T03:07:42.506Z,11.90
2023-05-09T03:08:45.424Z,12.00
2023-05-09T03:09:47.397Z,12.00
2023-05-09T03:10:51.329Z,12.00
2023-05-09T03:11:53.224Z,12.00
2023-05-09T03:12:56.176Z,12.00
2023-05-09T03:13:58.105Z,12.10
2023-05-09T03:15:01.198Z,12.10
2023-05-09T03:16:03.242Z,12.10
2023-05-09T03:17:06.226Z,12.10
2023-05-09T03:18:08.216Z,12.00
2023-05-09T03:19:11.239Z,12.10
2023-05-09T03:20:15.691Z,12.00
2023-05-09T03:21:18.741Z,12.00
2023-05-09T03:22:20.809Z,12.10
2023-05-09T03:23:23.822Z,12.00
2023-05-09T03:24:28.135Z,12.00
2023-05-09T03:25:31.361Z,12.00
2023-05-09T03:26:35.563Z,12.00
2023-05-09T03:27:38.540Z,12.00
2023-05-09T03:28:40.777Z,12.00
2023-05-09T03:29:43.688Z,12.00
2023-05-09T03:30:45.732Z,12.00
2023-05-09T03:31:48.862Z,11.90
2023-05-09T03:32:51.291Z,12.00
2023-05-09T03:33:54.343Z,12.00
2023-05-09T03:34:57.249Z,12.00
2023-05-09T03:36:01.562Z,11.90
2023-05-09T03:37:04.625Z,11.90
2023-05-09T03:38:06.671Z,11.90
2023-05-09T03:39:10.036Z,11.90
2023-05-09T03:40:12.543Z,12.00
2023-05-09T03:41:17.889Z,12.00
2023-05-09T03:42:19.908Z,11.90
2023-05-09T03:43:22.859Z,11.90
2023-05-09T03:44:24.819Z,11.90
2023-05-09T03:45:27.765Z,11.80
2023-05-09T03:46:29.794Z,11.80
2023-05-09T03:47:32.764Z,12.00
2023-05-09T03:48:34.895Z,12.00
2023-05-09T03:49:37.779Z,11.90
2023-05-09T03:50:39.755Z,12.00
2023-05-09T03:51:44.138Z,12.00
2023-05-09T03:52:46.199Z,12.00
2023-05-09T03:53:49.431Z,11.90
2023-05-09T03:54:51.353Z,11.90
2023-05-09T03:55:54.255Z,11.80
2023-05-09T03:56:56.233Z,11.80
2023-05-09T03:57:59.217Z,11.80
2023-05-09T03:59:01.196Z,11.90
2023-05-09T04:00:06.135Z,11.90
2023-05-09T04:01:08.181Z,11.90
2023-05-09T04:02:11.278Z,11.90
2023-05-09T04:03:13.539Z,11.90
2023-05-09T04:04:16.508Z,11.90
2023-05-09T04:05:19.948Z,11.90
2023-05-09T04:06:22.936Z,11.90
2023-05-09T04:07:26.657Z,11.90
2023-05-09T04:08:29.712Z,12.00
2023-05-09T04:09:31.643Z,12.00
2023-05-09T04:10:34.656Z,12.00
2023-05-09T04:11:36.602Z,12.00
2023-05-09T04:12:39.576Z,12.10
2023-05-09T04:13:41.632Z,12.10
2023-05-09T04:14:46.135Z,12.10
2023-05-09T04:16:52.684Z,12.20
2023-05-09T04:17:54.684Z,12.20
2023-05-09T04:18:57.648Z,12.20
2023-05-09T04:19:59.618Z,12.20
2023-05-09T04:21:03.254Z,12.20
2023-05-09T04:22:05.222Z,12.20
2023-05-09T04:23:09.513Z,12.20
2023-05-09T04:24:11.725Z,12.20
2023-05-09T04:25:16.123Z,12.20
2023-05-09T04:26:18.335Z,12.30
2023-05-09T04:27:22.005Z,12.30
2023-05-09T04:28:23.977Z,12.30
2023-05-09T04:29:27.194Z,12.30
2023-05-09T04:30:29.620Z,12.30
2023-05-09T04:31:32.763Z,12.30
2023-05-09T04:32:35.687Z,12.30
2023-05-09T04:34:41.489Z,12.30
2023-05-09T04:35:44.378Z,12.30
2023-05-09T04:37:49.646Z,12.30
2023-05-09T04:38:53.028Z,12.30
2023-05-09T04:40:58.557Z,12.30
2023-05-09T04:42:02.667Z,12.40
2023-05-09T04:43:04.794Z,12.40
2023-05-09T04:44:08.176Z,12.40
2023-05-09T04:45:11.710Z,12.40
2023-05-09T04:46:14.833Z,12.50
2023-05-09T04:47:16.765Z,12.60
2023-05-09T04:48:19.738Z,12.70
2023-05-09T04:49:21.759Z,12.70
2023-05-09T04:50:24.681Z,12.70
2023-05-09T04:51:26.618Z,12.90
2023-05-09T04:52:29.557Z,12.90
2023-05-09T04:53:31.955Z,12.90
2023-05-09T04:54:36.222Z,13.00
2023-05-09T04:55:38.149Z,13.00
2023-05-09T04:56:41.125Z,13.00
2023-05-09T04:57:43.084Z,13.00
2023-05-09T04:58:45.999Z,13.00
2023-05-09T04:59:48.025Z,13.00
2023-05-09T05:00:51.346Z,13.10
2023-05-09T05:01:54.430Z,13.00
2023-05-09T05:02:57.625Z,13.00
2023-05-09T05:03:59.600Z,13.00
2023-05-09T05:05:11.555Z,13.00
2023-05-09T05:06:15.470Z,13.00
2023-05-09T05:07:18.841Z,13.10
2023-05-09T05:08:21.793Z,13.10
2023-05-09T05:09:23.726Z,13.20
2023-05-09T05:10:29.288Z,13.20
2023-05-09T05:11:31.272Z,13.10
2023-05-09T05:12:34.256Z,13.10
2023-05-09T05:13:36.349Z,13.00
2023-05-09T05:14:39.245Z,13.10
2023-05-09T05:15:41.302Z,13.10
2023-05-09T05:16:44.257Z,13.00
2023-05-09T05:17:46.230Z,13.10
2023-05-09T05:18:49.389Z,13.10
2023-05-09T05:19:51.282Z,13.00
2023-05-09T05:20:54.245Z,13.10
2023-05-09T05:21:56.320Z,13.10
2023-05-09T05:22:59.795Z,13.10
2023-05-09T05:24:01.777Z,13.20
2023-05-09T05:25:05.316Z,13.20
2023-05-09T05:26:08.618Z,13.20
2023-05-09T05:27:11.525Z,13.20
2023-05-09T05:28:13.554Z,13.20
2023-05-09T05:29:17.601Z,13.20
2023-05-09T05:30:21.057Z,13.30
2023-05-09T05:31:24.339Z,13.30
2023-05-09T05:32:26.340Z,13.30
2023-05-09T05:33:29.296Z,13.30
2023-05-09T05:34:31.234Z,13.30
2023-05-09T05:35:34.227Z,13.40
2023-05-09T05:36:36.184Z,13.40
2023-05-09T05:37:39.559Z,13.40
2023-05-09T05:38:41.554Z,13.40
2023-05-09T05:39:44.477Z,13.50
2023-05-09T05:40:46.579Z,13.30
2023-05-09T05:41:51.933Z,13.20
2023-05-09T05:42:54.409Z,13.20
2023-05-09T05:43:57.380Z,13.20
2023-05-09T05:45:04.201Z,13.20
2023-05-09T05:46:07.217Z,13.20
2023-05-09T05:47:09.182Z,13.10
2023-05-09T05:48:12.445Z,13.10
2023-05-09T05:49:14.411Z,13.20
2023-05-09T05:50:17.399Z,13.20
2023-05-09T05:51:19.328Z,13.30
2023-05-09T05:52:22.268Z,13.20
2023-05-09T05:53:24.254Z,13.20
2023-05-09T05:54:27.160Z,13.30
2023-05-09T05:55:29.124Z,13.30
2023-05-09T05:56:32.081Z,13.20
2023-05-09T05:57:35.446Z,13.30
2023-05-09T05:58:38.366Z,13.20
2023-05-09T05:59:40.313Z,13.10
2023-05-09T06:00:43.313Z,13.10
2023-05-09T06:01:46.803Z,13.10
2023-05-09T06:02:49.976Z,13.20
2023-05-09T06:03:54.870Z,13.10
2023-05-09T06:04:57.036Z,13.10
2023-05-09T06:06:00.208Z,13.20
2023-05-09T06:07:02.205Z,13.20
2023-05-09T06:08:05.812Z,13.20
2023-05-09T06:09:07.778Z,13.20
2023-05-09T06:10:11.257Z,13.20
2023-05-09T06:11:13.552Z,13.20
2023-05-09T06:12:17.130Z,13.30
2023-05-09T06:13:20.427Z,13.30
2023-05-09T06:14:23.406Z,13.40
2023-05-09T06:15:25.400Z,13.30
2023-05-09T06:16:28.700Z,13.40
2023-05-09T06:17:30.834Z,13.30
2023-05-09T06:18:35.567Z,13.30
2023-05-09T06:19:37.753Z,13.30
2023-05-09T06:20:40.854Z,13.40
2023-05-09T06:21:42.809Z,13.40
2023-05-09T06:22:45.747Z,13.40
2023-05-09T06:24:04.262Z,13.30
2023-05-09T06:25:10.646Z,13.40
2023-05-09T06:26:14.488Z,13.20
2023-05-09T06:27:17.461Z,13.20
2023-05-09T06:28:20.740Z,13.20
2023-05-09T06:29:23.794Z,13.20
2023-05-09T06:30:26.948Z,13.00
2023-05-09T06:31:30.745Z,13.00
2023-05-09T06:32:32.700Z,13.00
2023-05-09T06:33:35.685Z,13.00
2023-05-09T06:34:38.848Z,13.00
2023-05-09T06:35:40.774Z,13.00
2023-05-09T06:36:43.904Z,13.00
2023-05-09T06:37:48.234Z,13.00
2023-05-09T06:38:51.646Z,13.10
2023-05-09T06:39:54.519Z,13.10
2023-05-09T06:40:57.492Z,13.20
2023-05-09T06:41:59.399Z,13.20
2023-05-09T06:43:02.390Z,13.20
2023-05-09T06:44:06.789Z,13.10
2023-05-09T06:45:09.506Z,13.20
2023-05-09T06:46:12.473Z,13.20
2023-05-09T06:47:14.652Z,13.20
2023-05-09T06:49:20.877Z,13.20
2023-05-09T06:50:23.005Z,13.20
2023-05-09T06:51:27.040Z,13.20
2023-05-09T06:52:30.030Z,13.20
2023-05-09T06:53:32.018Z,13.20
2023-05-09T06:54:34.930Z,13.30
2023-05-09T06:56:40.216Z,13.20
2023-05-09T06:57:43.176Z,13.20
2023-05-09T06:58:45.318Z,13.30
2023-05-09T06:59:49.604Z,13.30
2023-05-09T07:00:51.649Z,13.40
2023-05-09T07:01:54.726Z,13.40
2023-05-09T07:02:57.722Z,13.50
2023-05-09T07:05:03.090Z,13.50
2023-05-09T07:06:06.461Z,13.60
2023-05-09T07:07:08.449Z,13.60
2023-05-09T07:08:11.381Z,13.60
2023-05-09T07:09:15.329Z,13.60
2023-05-09T07:10:18.451Z,13.60
2023-05-09T07:11:21.151Z,13.60
2023-05-09T07:12:24.269Z,13.60
2023-05-09T07:13:27.202Z,13.60
2023-05-09T07:14:29.207Z,13.70
2023-05-09T07:15:41.157Z,13.70
2023-05-09T07:16:46.787Z,13.70
2023-05-09T07:17:49.909Z,13.60
2023-05-09T07:18:51.880Z,13.60
2023-05-09T07:19:54.805Z,13.60
2023-05-09T07:20:57.824Z,13.60
2023-05-09T07:21:59.888Z,13.60
2023-05-09T07:23:04.230Z,13.70
2023-05-09T07:24:06.985Z,13.70
2023-05-09T07:25:10.818Z,13.70
2023-05-09T07:26:12.819Z,13.70
2023-05-09T07:27:15.740Z,13.70
2023-05-09T07:28:19.133Z,13.80
2023-05-09T07:29:21.084Z,13.80
2023-05-09T07:30:24.123Z,13.90
2023-05-09T07:31:28.604Z,13.90
2023-05-09T07:32:30.716Z,13.90
2023-05-09T07:33:34.138Z,13.90
2023-05-09T07:34:36.372Z,13.90
2023-05-09T07:35:44.108Z,13.90
2023-05-09T07:36:46.058Z,13.90
2023-05-09T07:37:50.347Z,14.00
2023-05-09T07:38:53.477Z,14.00
2023-05-09T07:39:56.383Z,14.10
2023-05-09T07:40:58.275Z,14.10
2023-05-09T07:42:01.158Z,14.10
2023-05-09T07:43:04.110Z,14.10
2023-05-09T07:44:06.283Z,14.10
2023-05-09T07:45:10.843Z,14.10
2023-05-09T07:46:13.772Z,14.10
2023-05-09T07:47:17.208Z,14.00
2023-05-09T07:48:20.352Z,14.00
2023-05-09T07:49:23.387Z,14.10
2023-05-09T07:50:25.380Z,14.10
2023-05-09T07:51:28.326Z,14.20
2023-05-09T07:52:30.326Z,14.20
2023-05-09T07:53:33.460Z,14.20
2023-05-09T07:54:35.358Z,14.20
2023-05-09T07:55:38.321Z,14.20
2023-05-09T07:56:40.437Z,14.30
2023-05-09T07:57:43.442Z,14.20
2023-05-09T07:58:46.348Z,14.30
2023-05-09T07:59:49.358Z,14.30
2023-05-09T08:00:52.336Z,14.40
2023-05-09T08:01:54.302Z,14.40
2023-05-09T08:02:58.707Z,14.40
2023-05-09T08:04:01.813Z,14.50
2023-05-09T08:05:04.024Z,14.50
2023-05-09T08:06:07.092Z,14.60
2023-05-09T08:07:09.107Z,14.70
2023-05-09T08:08:12.197Z,14.60
2023-05-09T08:09:14.097Z,14.60
2023-05-09T08:10:17.279Z,14.60
2023-05-09T08:11:20.276Z,14.50
2023-05-09T08:13:25.528Z,14.70
2023-05-09T08:14:27.536Z,14.70
2023-05-09T08:15:31.281Z,14.50
2023-05-09T08:16:33.239Z,14.50
2023-05-09T08:17:36.283Z,14.70
2023-05-09T08:18:39.618Z,14.80
2023-05-09T08:19:42.554Z,14.90
2023-05-09T08:20:47.757Z,14.80
2023-05-09T08:21:50.681Z,14.90
2023-05-09T08:22:52.687Z,14.70
2023-05-09T08:23:55.781Z,14.80
2023-05-09T08:24:57.682Z,15.00
2023-05-09T08:26:00.898Z,14.80
2023-05-09T08:27:02.837Z,14.60
2023-05-09T08:28:06.104Z,14.60
2023-05-09T08:29:08.012Z,14.70
2023-05-09T08:30:12.117Z,14.90
2023-05-09T08:31:14.107Z,14.80
2023-05-09T08:32:17.421Z,14.70
2023-05-09T08:33:20.487Z,14.80
2023-05-09T08:34:23.788Z,14.60
2023-05-09T08:35:26.743Z,14.80
2023-05-09T08:37:32.422Z,15.00
2023-05-09T08:38:36.269Z,15.20
2023-05-09T08:39:39.270Z,15.20
2023-05-09T08:40:42.443Z,15.30
2023-05-09T08:41:44.670Z,15.30
2023-05-09T08:42:49.359Z,15.20
2023-05-09T08:43:52.822Z,15.20
2023-05-09T08:44:55.759Z,15.20
2023-05-09T08:46:01.405Z,15.20
2023-05-09T08:47:04.816Z,15.30
2023-05-09T08:48:08.874Z,15.30
2023-05-09T08:49:12.928Z,15.20
2023-05-09T08:50:18.385Z,15.20
2023-05-09T08:51:21.869Z,15.20
2023-05-09T08:52:24.976Z,15.20
2023-05-09T08:53:27.869Z,15.20
2023-05-09T08:54:31.218Z,15.30
2023-05-09T08:55:33.286Z,15.30
2023-05-09T08:56:36.869Z,15.30
2023-05-09T08:57:39.951Z,15.30
2023-05-09T08:58:42.527Z,15.40
2023-05-09T08:59:46.498Z,15.40
2023-05-09T09:00:51.295Z,15.40
2023-05-09T09:01:55.012Z,15.40
2023-05-09T09:02:59.596Z,15.40
2023-05-09T09:04:03.182Z,15.40
2023-05-09T09:06:11.680Z,15.50
2023-05-09T09:07:16.223Z,15.40
2023-05-09T09:08:19.912Z,15.30
2023-05-09T09:09:23.630Z,15.20
2023-05-09T09:10:29.676Z,15.20
2023-05-09T09:11:32.067Z,15.10
2023-05-09T09:12:36.998Z,15.10
2023-05-09T09:13:42.073Z,15.10
2023-05-09T09:14:48.170Z,15.10
2023-05-09T09:15:53.925Z,15.10
2023-05-09T09:16:58.420Z,15.10
2023-05-09T09:18:09.241Z,15.10
2023-05-09T09:19:17.575Z,15.20
2023-05-09T09:20:22.852Z,15.20
2023-05-09T09:21:27.571Z,15.20
2023-05-09T09:22:33.867Z,15.20
2023-05-09T09:23:40.071Z,15.20
2023-05-09T09:24:43.088Z,15.20
2023-05-09T09:25:46.502Z,15.20
2023-05-09T09:26:51.163Z,15.20
2023-05-09T09:27:53.070Z,15.20
2023-05-09T09:28:57.535Z,15.20
2023-05-09T09:30:08.537Z,15.20
2023-05-09T09:31:21.837Z,15.20
2023-05-09T09:32:34.956Z,15.20
2023-05-09T09:33:37.920Z,15.20
2023-05-09T09:34:40.821Z,15.20
2023-05-09T09:35:43.480Z,15.20
2023-05-09T09:36:48.403Z,15.20
2023-05-09T09:38:00.387Z,15.20
2023-05-09T09:39:05.936Z,15.20
2023-05-09T09:40:09.677Z,15.30
2023-05-09T09:41:13.826Z,15.30
2023-05-09T09:42:18.063Z,18.30
2023-05-09T09:43:20.010Z,15.30
2023-05-09T09:44:24.145Z,15.30
2023-05-09T09:45:29.262Z,15.40
2023-05-09T09:46:41.540Z,15.50
2023-05-09T09:47:45.506Z,15.50
2023-05-09T09:48:54.959Z,15.60
2023-05-09T09:49:57.871Z,15.60
2023-05-09T09:51:04.075Z,15.70
2023-05-09T09:52:08.330Z,15.70
2023-05-09T09:53:11.518Z,15.70
2023-05-09T09:54:14.808Z,15.80
2023-05-09T09:55:17.950Z,15.90
2023-05-09T09:56:22.211Z,15.90
2023-05-09T09:57:35.131Z,16.00
2023-05-09T09:58:38.314Z,16.20
2023-05-09T09:59:40.367Z,16.40
2023-05-09T10:00:43.330Z,16.30
2023-05-09T10:02:06.671Z,16.20
2023-05-09T10:03:15.861Z,16.30
2023-05-09T10:04:17.861Z,16.30
2023-05-09T10:05:22.473Z,16.30
2023-05-09T10:06:25.454Z,16.40
2023-05-09T10:07:34.268Z,16.50
2023-05-09T10:08:37.249Z,16.60
2023-05-09T10:09:39.207Z,16.60
2023-05-09T10:10:42.526Z,16.60
2023-05-09T10:11:45.083Z,16.60
2023-05-09T10:12:49.538Z,17.50
2023-05-09T10:13:52.478Z,16.50
2023-05-09T10:14:55.804Z,16.50
2023-05-09T10:15:59.224Z,16.60
2023-05-09T10:17:04.807Z,16.60
2023-05-09T10:18:09.140Z,16.50
2023-05-09T10:19:14.039Z,16.50
2023-05-09T10:20:18.952Z,16.60
2023-05-09T10:21:21.082Z,16.50
2023-05-09T10:22:24.811Z,16.60
2023-05-09T10:23:30.641Z,16.50
2023-05-09T10:24:35.463Z,16.50
2023-05-09T10:25:42.327Z,16.50
2023-05-09T10:26:49.540Z,16.60
2023-05-09T10:27:54.901Z,16.80
2023-05-09T10:29:02.995Z,16.90
2023-05-09T10:30:10.390Z,16.80
2023-05-09T10:31:19.468Z,16.80
2023-05-09T10:32:32.454Z,16.80
2023-05-09T10:33:44.408Z,16.80
2023-05-09T10:34:53.528Z,16.90
2023-05-09T10:35:58.927Z,16.90
2023-05-09T10:37:01.503Z,16.90
2023-05-09T10:38:05.165Z,16.80
2023-05-09T10:39:10.505Z,16.80
2023-05-09T10:40:15.338Z,16.80
2023-05-09T10:41:19.683Z,16.80
2023-05-09T10:42:23.827Z,16.80
2023-05-09T10:43:27.246Z,16.80
2023-05-09T10:44:30.421Z,16.80
2023-05-09T10:45:34.575Z,16.80
2023-05-09T10:46:38.457Z,16.90
2023-05-09T10:47:42.964Z,16.90
2023-05-09T10:48:47.255Z,17.00
2023-05-09T10:49:50.482Z,17.00
2023-05-09T10:50:53.870Z,17.00
2023-05-09T10:51:55.799Z,16.80
2023-05-09T10:53:18.301Z,16.80
2023-05-09T10:54:31.865Z,17.00
2023-05-09T10:55:37.727Z,17.00
2023-05-09T10:56:40.877Z,16.90
2023-05-09T10:57:54.986Z,16.90
2023-05-09T10:58:58.076Z,16.80
2023-05-09T11:00:00.373Z,16.80
2023-05-09T11:01:05.344Z,16.90
2023-05-09T11:02:14.160Z,16.80
2023-05-09T11:03:19.164Z,16.80
2023-05-09T11:04:22.245Z,16.80
2023-05-09T11:05:24.168Z,16.70
2023-05-09T11:06:46.410Z,16.60
2023-05-09T11:08:09.593Z,16.80
2023-05-09T11:09:33.190Z,17.00
2023-05-09T11:10:43.669Z,17.00
2023-05-09T11:11:51.755Z,17.20
2023-05-09T11:12:57.928Z,17.20
2023-05-09T11:14:01.415Z,17.20
2023-05-09T11:15:09.084Z,17.10
2023-05-09T11:16:12.067Z,17.00
2023-05-09T11:17:16.809Z,16.80
2023-05-09T11:18:19.090Z,16.80
2023-05-09T11:19:36.400Z,16.90
2023-05-09T11:20:44.941Z,17.00
2023-05-09T11:22:05.215Z,17.00
2023-05-09T11:23:11.748Z,17.10
2023-05-09T11:24:17.399Z,17.00
2023-05-09T11:25:28.383Z,16.90
2023-05-09T11:26:31.327Z,16.80
2023-05-09T11:27:40.893Z,16.60
2023-05-09T11:28:54.237Z,16.60
2023-05-09T11:29:57.478Z,16.60
2023-05-09T11:31:11.230Z,16.60
2023-05-09T11:32:15.099Z,16.50
2023-05-09T11:33:25.086Z,16.60
2023-05-09T11:34:27.039Z,16.70
2023-05-09T11:35:30.204Z,16.60
2023-05-09T11:36:35.208Z,16.70
2023-05-09T11:37:45.878Z,16.90
2023-05-09T11:38:49.062Z,16.90
2023-05-09T11:39:58.866Z,16.80
2023-05-09T11:41:03.309Z,16.70
2023-05-09T11:42:05.956Z,16.60
2023-05-09T11:43:09.565Z,16.60
2023-05-09T11:44:20.839Z,16.60
2023-05-09T11:45:24.978Z,16.70
2023-05-09T11:46:27.756Z,16.80
2023-05-09T11:47:30.947Z,16.70
2023-05-09T11:48:38.577Z,16.80
2023-05-09T11:49:44.218Z,16.70
2023-05-09T11:50:47.912Z,16.70
2023-05-09T11:51:51.095Z,16.70
2023-05-09T11:52:55.138Z,16.80
2023-05-09T11:53:57.113Z,16.80
2023-05-09T11:55:00.517Z,16.70
2023-05-09T11:56:06.390Z,16.60
2023-05-09T11:57:09.558Z,16.80
2023-05-09T11:58:12.795Z,16.70
2023-05-09T11:59:15.988Z,16.80
2023-05-09T12:00:20.500Z,16.70
2023-05-09T12:01:23.138Z,16.60
2023-05-09T12:02:26.153Z,16.70
2023-05-09T12:03:29.270Z,17.10
2023-05-09T12:04:32.035Z,17.00
2023-05-09T12:05:35.194Z,17.30
2023-05-09T12:06:38.199Z,17.20
2023-05-09T12:07:42.172Z,17.00
2023-05-09T12:08:45.034Z,17.00
2023-05-09T12:09:50.771Z,16.90
2023-05-09T12:10:52.833Z,16.90
2023-05-09T12:11:57.136Z,16.80
2023-05-09T12:13:00.052Z,16.70
2023-05-09T12:14:02.033Z,16.70
2023-05-09T12:15:08.037Z,16.60
2023-05-09T12:16:11.010Z,16.50
2023-05-09T12:17:13.956Z,16.60
2023-05-09T12:18:18.170Z,16.60
2023-05-09T12:19:20.968Z,16.60
2023-05-09T12:20:24.006Z,16.60
2023-05-09T12:21:28.370Z,16.50
2023-05-09T12:22:30.561Z,16.60
2023-05-09T12:23:36.029Z,16.60
2023-05-09T12:24:38.994Z,16.60
2023-05-09T12:25:47.403Z,16.60
2023-05-09T12:26:51.585Z,16.60
2023-05-09T12:27:57.196Z,16.50
2023-05-09T12:29:00.589Z,16.50
2023-05-09T12:30:08.340Z,16.50
2023-05-09T12:31:11.588Z,16.50
2023-05-09T12:32:16.424Z,16.60
2023-05-09T12:33:20.042Z,16.70
2023-05-09T12:34:22.088Z,16.70
2023-05-09T12:35:25.536Z,16.80
2023-05-09T12:36:28.507Z,16.70
2023-05-09T12:37:33.208Z,16.60
2023-05-09T12:38:36.195Z,16.70
2023-05-09T12:39:38.303Z,16.70
2023-05-09T12:40:41.326Z,16.70
2023-05-09T12:41:57.421Z,16.70
2023-05-09T12:43:05.651Z,16.60
2023-05-09T12:44:07.798Z,16.70
2023-05-09T12:45:11.754Z,16.70
2023-05-09T12:46:18.786Z,16.60
2023-05-09T12:47:21.883Z,16.70
2023-05-09T12:48:24.960Z,16.70
2023-05-09T12:49:28.815Z,16.70
2023-05-09T12:50:35.873Z,16.80
2023-05-09T12:51:38.822Z,16.80
2023-05-09T12:52:54.595Z,16.80
2023-05-09T12:54:05.975Z,16.80
2023-05-09T12:55:11.310Z,16.70
2023-05-09T12:56:15.139Z,16.70
2023-05-09T12:57:28.814Z,19.50
2023-05-09T12:58:34.721Z,19.20
2023-05-09T12:59:36.714Z,18.50
2023-05-09T13:00:43.735Z,18.10
2023-05-09T13:01:46.797Z,17.80
2023-05-09T13:02:52.682Z,17.60
2023-05-09T13:04:02.976Z,17.40
2023-05-09T13:05:10.897Z,17.30
2023-05-09T13:06:15.264Z,17.20
2023-05-09T13:07:18.221Z,17.10
2023-05-09T13:08:21.671Z,17.10
2023-05-09T13:09:25.846Z,17.10
2023-05-09T13:10:28.803Z,17.00
2023-05-09T13:11:31.940Z,17.00
2023-05-09T13:12:35.114Z,17.00
2023-05-09T13:13:39.233Z,17.00
2023-05-09T13:14:42.247Z,17.00
2023-05-09T13:15:45.490Z,17.00
2023-05-09T13:16:48.778Z,17.00
2023-05-09T13:17:54.442Z,17.00
2023-05-09T13:18:57.426Z,17.00
2023-05-09T13:20:00.413Z,17.00
2023-05-09T13:21:03.459Z,17.00
2023-05-09T13:22:06.443Z,17.00
2023-05-09T13:23:08.432Z,17.00
2023-05-09T13:24:11.380Z,17.00
2023-05-09T13:25:16.084Z,17.00
2023-05-09T13:26:18.217Z,17.00
2023-05-09T13:27:21.695Z,17.00
2023-05-09T13:28:23.659Z,17.00
2023-05-09T13:29:27.934Z,17.00
2023-05-09T13:30:30.980Z,17.00
2023-05-09T13:31:34.091Z,17.10
2023-05-09T13:32:36.812Z,17.10
2023-05-09T13:33:40.110Z,17.10
2023-05-09T13:34:43.208Z,17.10
2023-05-09T13:35:47.079Z,17.10
2023-05-09T13:36:50.761Z,17.10
2023-05-09T13:37:53.740Z,17.10
2023-05-09T13:38:56.668Z,17.20
2023-05-09T13:39:58.609Z,17.20
2023-05-09T13:41:01.572Z,17.20
2023-05-09T13:42:04.043Z,17.20
2023-05-09T13:43:06.959Z,17.20
2023-05-09T13:44:08.919Z,17.20
2023-05-09T13:45:13.592Z,17.20
2023-05-09T13:46:17.040Z,17.30
2023-05-09T13:47:19.111Z,17.30
2023-05-09T13:48:22.042Z,17.30
2023-05-09T13:49:24.954Z,17.30
2023-05-09T13:50:27.302Z,17.30
2023-05-09T13:51:30.233Z,17.30
2023-05-09T13:52:33.393Z,17.30
2023-05-09T13:53:37.345Z,17.30
2023-05-09T13:54:41.764Z,17.30
2023-05-09T13:55:45.541Z,17.30
2023-05-09T13:56:48.547Z,17.30